Time;durP1;ratioP1;P1;durP2;ratioP2;P2;SDS_P1;SDS_P2;PMS_P1;PMS_P2;Temp;Humidity;BMP_temperature;BMP_pressure;BME280_temperature;BME280_humidity;BME280_pressure;Samples;Min_cycle;Max_cycle;Signal;HPM_P1;HPM_P2
2022/04/02 00:00:28;;;;;;;4.97;1.90;;;3.20;99.90;;;;;;5088095;28;20481;-60
2022/04/02 00:02:55;;;;;;;4.53;2.15;;;3.20;99.90;;;;;;5084149;28;20067;-60
2022/04/02 00:05:21;;;;;;;4.05;1.77;;;3.20;99.90;;;;;;5083216;28;20038;-60
2022/04/02 00:07:47;;;;;;;3.38;2.25;;;3.10;99.90;;;;;;5081499;28;20045;-59
2022/04/02 00:10:12;;;;;;;4.32;1.92;;;3.10;99.90;;;;;;5081956;28;20117;-60
2022/04/02 00:12:39;;;;;;;5.63;1.95;;;3.10;99.90;;;;;;5085075;28;20044;-60
2022/04/02 00:15:05;;;;;;;3.42;1.88;;;3.10;99.90;;;;;;5087245;28;20512;-60
2022/04/02 00:17:33;;;;;;;4.63;1.70;;;3.10;99.90;;;;;;5085841;28;20047;-60
2022/04/02 00:19:59;;;;;;;6.30;2.13;;;3.00;99.90;;;;;;5083136;28;20127;-60
2022/04/02 00:22:25;;;;;;;5.35;2.13;;;3.10;99.90;;;;;;5087029;28;20125;-60
2022/04/02 00:24:51;;;;;;;5.18;2.00;;;3.00;99.90;;;;;;5087049;28;20515;-60
2022/04/02 00:27:16;;;;;;;5.63;1.90;;;3.00;99.90;;;;;;5087576;28;20174;-60
2022/04/02 00:29:42;;;;;;;3.90;1.85;;;2.90;99.90;;;;;;5088358;28;20493;-60
2022/04/02 00:32:08;;;;;;;4.28;1.60;;;3.00;99.90;;;;;;5088421;28;20038;-60
2022/04/02 00:34:34;;;;;;;9.50;2.13;;;2.90;99.90;;;;;;5084208;28;20042;-60
2022/04/02 00:37:00;;;;;;;5.50;2.15;;;2.90;99.90;;;;;;5087034;28;20040;-60
2022/04/02 00:39:26;;;;;;;7.28;1.83;;;3.00;99.90;;;;;;5085772;28;20079;-60
2022/04/02 00:41:51;;;;;;;2.72;1.60;;;2.90;99.90;;;;;;5082934;28;20040;-60
2022/04/02 00:44:17;;;;;;;5.00;1.75;;;2.90;99.90;;;;;;5083413;28;20036;-60
2022/04/02 00:46:44;;;;;;;9.35;2.53;;;2.90;99.90;;;;;;5088192;28;20041;-60
2022/04/02 00:49:12;;;;;;;2.38;1.65;;;2.90;99.90;;;;;;5085921;28;20044;-60
2022/04/02 00:51:42;;;;;;;3.95;1.95;;;2.90;99.90;;;;;;5088053;28;20044;-60
2022/04/02 00:54:19;;;;;;;5.28;1.85;;;2.80;99.90;;;;;;5086061;28;20093;-60
2022/04/02 00:56:46;;;;;;;5.35;1.70;;;2.80;99.90;;;;;;5086296;28;20142;-60
2022/04/02 00:59:12;;;;;;;3.78;2.40;;;2.70;99.90;;;;;;5089351;28;20492;-60
2022/04/02 01:01:38;;;;;;;4.80;1.80;;;2.70;99.90;;;;;;5091100;28;20050;-59
2022/04/02 01:04:06;;;;;;;3.63;1.75;;;2.70;99.90;;;;;;5088584;28;20040;-60
2022/04/02 01:06:32;;;;;;;8.13;2.40;;;2.60;99.90;;;;;;5084104;28;20066;-60
2022/04/02 01:09:00;;;;;;;3.22;1.65;;;2.60;99.90;;;;;;5089628;28;20552;-60
2022/04/02 01:11:41;;;;;;;7.40;2.17;;;2.50;99.90;;;;;;5081462;28;20051;-60
2022/04/02 01:14:08;;;;;;;2.55;1.50;;;2.50;99.90;;;;;;5085630;28;20043;-59
2022/04/02 01:16:34;;;;;;;3.92;2.00;;;2.50;99.90;;;;;;5086452;28;20040;-60
2022/04/02 01:19:01;;;;;;;3.78;1.92;;;2.50;99.90;;;;;;5091028;28;20048;-60
2022/04/02 01:21:28;;;;;;;4.60;1.92;;;2.50;99.90;;;;;;5084307;28;20418;-60
2022/04/02 01:23:58;;;;;;;4.70;2.20;;;2.50;99.90;;;;;;5084867;28;20093;-60
2022/04/02 01:26:25;;;;;;;3.20;2.03;;;2.50;99.90;;;;;;5089448;28;20095;-60
2022/04/02 01:28:54;;;;;;;5.47;2.05;;;2.50;99.90;;;;;;5086382;28;20044;-60
2022/04/02 01:31:21;;;;;;;5.53;2.20;;;2.40;99.90;;;;;;5089994;28;20075;-60
2022/04/02 01:33:49;;;;;;;3.85;2.08;;;2.40;99.90;;;;;;5091014;28;20460;-60
2022/04/02 01:36:15;;;;;;;3.63;1.75;;;2.50;99.90;;;;;;5083467;28;20040;-60
2022/04/02 01:38:41;;;;;;;3.63;2.10;;;2.40;99.90;;;;;;5090848;28;20616;-60
2022/04/02 01:41:07;;;;;;;4.65;1.88;;;2.40;99.90;;;;;;5084466;28;20070;-60
2022/04/02 01:43:34;;;;;;;2.58;1.42;;;2.40;99.90;;;;;;5090665;28;20075;-59
2022/04/02 01:46:01;;;;;;;5.53;1.92;;;2.40;99.90;;;;;;5083677;28;20063;-60
2022/04/02 01:48:27;;;;;;;3.67;1.90;;;2.40;99.90;;;;;;5083744;28;20032;-60
2022/04/02 01:50:53;;;;;;;2.85;1.63;;;2.40;99.90;;;;;;5084342;28;20028;-60
2022/04/02 01:53:20;;;;;;;3.60;1.92;;;2.40;99.90;;;;;;5091151;28;20280;-60
2022/04/02 01:55:47;;;;;;;4.78;1.90;;;2.40;99.90;;;;;;5084070;28;20465;-60
2022/04/02 01:58:13;;;;;;;5.15;1.90;;;2.40;99.90;;;;;;5090746;28;20176;-60
2022/04/02 02:00:40;;;;;;;2.40;1.75;;;2.40;99.90;;;;;;5090609;28;20052;-60
2022/04/02 02:03:09;;;;;;;3.85;2.38;;;2.40;99.90;;;;;;5079938;28;20039;-60
2022/04/02 02:05:35;;;;;;;3.90;1.77;;;2.40;99.90;;;;;;5083948;28;20127;-60
2022/04/02 02:08:02;;;;;;;3.08;2.55;;;2.40;99.90;;;;;;5088435;28;20109;-60
2022/04/02 02:10:28;;;;;;;4.70;1.92;;;2.40;99.90;;;;;;5089372;28;20504;-59
2022/04/02 02:12:54;;;;;;;3.83;1.77;;;2.30;99.90;;;;;;5085335;28;20039;-60
2022/04/02 02:15:20;;;;;;;3.75;2.00;;;2.30;99.90;;;;;;5090512;28;20397;-60
2022/04/02 02:17:47;;;;;;;5.93;2.22;;;2.30;99.90;;;;;;5092789;28;20044;-60
2022/04/02 02:20:15;;;;;;;2.78;1.83;;;2.30;99.90;;;;;;5089973;28;20048;-60
2022/04/02 02:22:43;;;;;;;11.45;2.15;;;2.30;99.90;;;;;;5085333;28;20097;-60
2022/04/02 02:25:12;;;;;;;10.75;2.88;;;2.20;99.90;;;;;;5082438;28;20063;-60
2022/04/02 02:27:39;;;;;;;3.40;1.73;;;2.20;99.90;;;;;;5081784;28;20045;-60
2022/04/02 02:30:07;;;;;;;4.50;1.73;;;2.20;99.90;;;;;;5079795;28;20036;-60
2022/04/02 02:32:36;;;;;;;2.92;1.80;;;2.20;99.90;;;;;;5085694;28;20454;-60
2022/04/02 02:38:08;;;;;;;4.65;1.80;;;2.20;99.90;;;;;;5077012;28;20142;-59
2022/04/02 02:40:35;;;;;;;3.22;1.60;;;2.10;99.90;;;;;;5082943;28;20044;-60
2022/04/02 02:43:01;;;;;;;2.90;1.92;;;2.20;99.90;;;;;;5084926;28;20068;-60
2022/04/02 02:45:27;;;;;;;2.88;1.65;;;2.20;99.90;;;;;;5081215;28;20082;-60
2022/04/02 02:47:54;;;;;;;5.03;1.88;;;2.20;99.90;;;;;;5080497;28;20032;-60
2022/04/02 02:50:21;;;;;;;5.18;1.52;;;2.10;99.90;;;;;;5084311;28;20085;-60
2022/04/02 02:52:47;;;;;;;4.00;1.52;;;2.10;99.90;;;;;;5086964;28;20036;-65
2022/04/02 02:55:13;;;;;;;5.53;2.17;;;2.10;99.90;;;;;;5083250;28;20088;-60
2022/04/02 02:57:40;;;;;;;6.35;2.05;;;2.10;99.90;;;;;;5083615;28;20391;-60
2022/04/02 03:00:10;;;;;;;4.18;2.38;;;2.10;99.90;;;;;;5085286;28;20068;-60
2022/04/02 03:02:39;;;;;;;3.35;1.65;;;2.10;99.90;;;;;;5084679;28;20090;-60
2022/04/02 03:05:13;;;;;;;2.75;1.98;;;2.10;99.90;;;;;;5080797;28;20040;-60
2022/04/02 03:07:50;;;;;;;4.97;2.20;;;2.10;99.90;;;;;;5084535;28;20047;-60
2022/04/02 03:10:25;;;;;;;3.97;1.63;;;2.00;99.90;;;;;;5083566;28;20036;-60
2022/04/02 03:12:52;;;;;;;3.15;1.83;;;2.00;99.90;;;;;;5085387;28;20425;-60
2022/04/02 03:15:18;;;;;;;4.05;1.98;;;2.00;99.90;;;;;;5077705;28;20032;-60
2022/04/02 03:17:44;;;;;;;4.85;1.58;;;2.00;99.90;;;;;;5086894;28;20100;-60
2022/04/02 03:20:15;;;;;;;5.60;1.20;;;1.90;99.90;;;;;;5082868;28;20059;-60
2022/04/02 03:22:43;;;;;;;4.43;1.80;;;2.00;99.90;;;;;;5080428;28;20037;-60
2022/04/02 03:25:15;;;;;;;3.60;1.80;;;1.90;99.90;;;;;;5073394;28;20059;-60
2022/04/02 03:27:43;;;;;;;4.15;1.42;;;1.90;99.90;;;;;;5088256;28;20043;-60
2022/04/02 03:30:10;;;;;;;6.78;1.65;;;1.90;99.90;;;;;;5086742;28;20065;-60
2022/04/02 03:32:37;;;;;;;4.00;1.60;;;1.90;99.90;;;;;;5086668;28;20044;-60
2022/04/02 03:35:04;;;;;;;2.13;1.55;;;1.90;99.90;;;;;;5087458;28;20043;-60
2022/04/02 03:37:32;;;;;;;3.60;1.80;;;1.90;99.90;;;;;;5089503;28;20040;-60
2022/04/02 03:39:58;;;;;;;3.45;1.70;;;1.90;99.90;;;;;;5087000;28;20512;-60
2022/04/02 03:42:25;;;;;;;6.28;1.55;;;1.90;99.90;;;;;;5091745;28;20032;-59
2022/04/02 03:44:51;;;;;;;4.40;1.40;;;1.80;99.90;;;;;;5087408;28;20401;-60
2022/04/02 03:47:22;;;;;;;3.17;1.55;;;1.80;99.90;;;;;;5089078;28;20107;-60
2022/04/02 03:49:49;;;;;;;2.95;1.70;;;1.90;99.90;;;;;;5086990;28;20070;-59
2022/04/02 03:52:15;;;;;;;3.08;1.52;;;1.80;99.90;;;;;;5085381;28;20059;-60
2022/04/02 03:54:41;;;;;;;5.05;1.45;;;1.80;99.90;;;;;;5082357;28;20493;-60
2022/04/02 03:57:08;;;;;;;3.60;1.80;;;1.80;99.90;;;;;;5082329;28;20517;-60
2022/04/02 03:59:35;;;;;;;4.72;1.48;;;1.80;99.90;;;;;;5087805;28;20513;-60
2022/04/02 04:02:01;;;;;;;7.65;1.42;;;1.80;99.90;;;;;;5088391;28;20028;-60
2022/04/02 04:04:27;;;;;;;5.78;1.63;;;1.80;99.90;;;;;;5085011;28;20111;-60
2022/04/02 04:06:56;;;;;;;5.93;1.75;;;1.80;99.90;;;;;;5083581;28;20043;-60
2022/04/02 04:09:22;;;;;;;2.25;1.45;;;1.80;99.90;;;;;;5080749;28;20048;-60
2022/04/02 04:11:48;;;;;;;3.10;1.50;;;1.80;99.90;;;;;;5079035;28;20048;-60
2022/04/02 04:14:15;;;;;;;2.65;1.58;;;1.80;99.90;;;;;;5088413;28;20367;-60
2022/04/02 04:16:41;;;;;;;2.85;1.30;;;1.80;99.90;;;;;;5088474;28;20103;-60
2022/04/02 04:19:09;;;;;;;4.95;1.60;;;1.70;99.90;;;;;;5086326;28;20036;-60
2022/04/02 04:21:36;;;;;;;4.68;1.58;;;1.70;99.90;;;;;;5088224;28;20081;-60
2022/04/02 04:24:03;;;;;;;3.55;1.52;;;1.70;99.90;;;;;;5087386;28;20111;-60
2022/04/02 04:26:29;;;;;;;4.07;1.70;;;1.70;99.90;;;;;;5094486;28;20048;-60
2022/04/02 04:28:55;;;;;;;2.38;1.40;;;1.70;99.90;;;;;;5086230;28;20206;-60
2022/04/02 04:31:21;;;;;;;1.83;1.17;;;1.70;99.90;;;;;;5083874;28;20040;-60
2022/04/02 04:33:48;;;;;;;3.55;1.55;;;1.70;99.90;;;;;;5091108;28;20082;-60
2022/04/02 04:36:21;;;;;;;1.92;1.40;;;1.70;99.90;;;;;;5092272;28;20041;-60
2022/04/02 04:38:48;;;;;;;4.47;1.80;;;1.70;99.90;;;;;;5081167;28;20044;-60
2022/04/02 04:41:17;;;;;;;4.43;1.50;;;1.70;99.90;;;;;;5082028;28;20032;-60
2022/04/02 04:43:43;;;;;;;4.47;1.77;;;1.70;99.90;;;;;;5088283;28;20097;-60
2022/04/02 04:46:09;;;;;;;3.50;1.60;;;1.70;99.90;;;;;;5092079;28;20507;-60
2022/04/02 04:48:38;;;;;;;5.47;1.58;;;1.70;99.90;;;;;;5087175;28;20040;-60
2022/04/02 04:51:04;;;;;;;5.65;1.40;;;1.60;99.90;;;;;;5087716;28;20423;-60
2022/04/02 04:53:34;;;;;;;5.38;1.60;;;1.60;99.90;;;;;;5087116;28;20126;-60
2022/04/02 04:56:00;;;;;;;3.60;1.55;;;1.60;99.90;;;;;;5090790;28;20536;-60
2022/04/02 04:58:27;;;;;;;5.30;1.42;;;1.60;99.90;;;;;;5092301;28;20036;-60
2022/04/02 05:00:57;;;;;;;2.92;1.40;;;1.60;99.90;;;;;;5086885;28;20436;-60
2022/04/02 05:03:24;;;;;;;4.13;1.90;;;1.60;99.90;;;;;;5091817;28;20413;-60
2022/04/02 05:05:50;;;;;;;1.95;1.30;;;1.60;99.90;;;;;;5091807;28;20040;-60
2022/04/02 05:08:17;;;;;;;2.90;1.50;;;1.60;99.90;;;;;;5091248;28;20043;-60
2022/04/02 05:10:42;;;;;;;5.28;1.83;;;1.60;99.90;;;;;;5090374;28;20373;-61
2022/04/02 05:13:09;;;;;;;3.05;1.60;;;1.50;99.90;;;;;;5091805;28;20492;-60
2022/04/02 05:15:35;;;;;;;2.53;1.10;;;1.50;99.90;;;;;;5091967;28;20032;-60
2022/04/02 05:18:02;;;;;;;3.20;1.52;;;1.50;99.90;;;;;;5088177;28;20047;-60
2022/04/02 05:20:28;;;;;;;6.13;1.90;;;1.50;99.90;;;;;;5086836;28;20044;-60
2022/04/02 05:22:54;;;;;;;4.03;1.92;;;1.50;99.90;;;;;;5089632;28;20504;-61
2022/04/02 05:25:20;;;;;;;4.38;1.42;;;1.50;99.90;;;;;;5083824;28;20040;-60
2022/04/02 05:27:47;;;;;;;3.22;1.70;;;1.50;99.90;;;;;;5091599;28;20040;-60
2022/04/02 05:30:13;;;;;;;3.17;1.40;;;1.50;99.90;;;;;;5091755;28;20036;-60
2022/04/02 05:32:40;;;;;;;6.07;1.73;;;1.50;99.90;;;;;;5087175;28;20550;-60
2022/04/02 05:35:06;;;;;;;2.00;1.23;;;1.50;99.90;;;;;;5082129;28;20101;-60
2022/04/02 05:37:32;;;;;;;2.80;1.48;;;1.50;99.90;;;;;;5083656;28;20513;-60
2022/04/02 05:39:58;;;;;;;2.28;1.60;;;1.50;99.90;;;;;;5083450;28;20093;-60
2022/04/02 05:42:25;;;;;;;2.58;1.58;;;1.50;99.90;;;;;;5073419;28;20044;-60
2022/04/02 05:44:51;;;;;;;3.88;1.65;;;1.50;99.90;;;;;;5073128;28;20485;-61
2022/04/02 05:47:17;;;;;;;2.95;1.88;;;1.50;99.90;;;;;;5088430;28;20040;-60
2022/04/02 05:49:47;;;;;;;4.40;2.47;;;1.50;99.90;;;;;;5080994;28;20036;-60
2022/04/02 05:52:13;;;;;;;4.28;2.17;;;1.50;99.90;;;;;;5084785;28;20047;-60
2022/04/02 05:54:38;;;;;;;4.38;2.17;;;1.50;99.90;;;;;;5086663;28;20463;-60
2022/04/02 05:57:05;;;;;;;5.00;2.20;;;1.60;99.90;;;;;;5086800;28;20055;-60
2022/04/02 05:59:31;;;;;;;3.53;2.35;;;1.60;99.90;;;;;;5083315;28;20050;-60
2022/04/02 06:01:56;;;;;;;4.82;2.20;;;1.60;99.90;;;;;;5084046;28;20036;-60
2022/04/02 06:04:25;;;;;;;4.78;1.50;;;1.60;99.90;;;;;;5091299;28;20690;-60
2022/04/02 06:06:51;;;;;;;7.43;2.00;;;1.60;99.90;;;;;;5082607;28;20044;-60
2022/04/02 06:09:17;;;;;;;11.88;3.72;;;1.70;99.90;;;;;;5083080;28;20054;-60
2022/04/02 06:11:42;;;;;;;4.38;2.42;;;1.70;99.90;;;;;;5086681;28;20044;-61
2022/04/02 06:14:10;;;;;;;3.10;1.77;;;1.70;99.90;;;;;;5084368;28;20049;-60
2022/04/02 06:16:35;;;;;;;3.40;1.65;;;1.70;99.90;;;;;;5088793;28;20050;-60
2022/04/02 06:19:02;;;;;;;5.40;2.58;;;1.80;99.90;;;;;;5083442;28;20048;-60
2022/04/02 06:21:28;;;;;;;4.70;2.05;;;1.80;99.90;;;;;;5090279;28;20571;-60
2022/04/02 06:23:54;;;;;;;3.67;1.60;;;1.80;99.90;;;;;;5087769;28;20043;-60
2022/04/02 06:26:20;;;;;;;3.42;1.70;;;1.80;99.90;;;;;;5085482;28;20131;-61
2022/04/02 06:28:45;;;;;;;4.18;1.52;;;1.90;99.90;;;;;;5076285;28;20570;-60
2022/04/02 06:31:12;;;;;;;4.90;2.10;;;1.90;99.90;;;;;;5075393;28;20033;-60
2022/04/02 06:33:38;;;;;;;3.60;1.67;;;1.90;99.90;;;;;;5073700;28;20161;-60
2022/04/02 06:36:04;;;;;;;2.65;1.50;;;2.00;99.90;;;;;;5072014;28;20470;-60
2022/04/02 06:38:30;;;;;;;4.45;2.03;;;2.00;99.90;;;;;;5078938;28;20078;-61
2022/04/02 06:40:56;;;;;;;4.55;1.88;;;2.00;99.90;;;;;;5073610;28;20107;-60
2022/04/02 06:43:22;;;;;;;5.07;1.60;;;2.00;99.90;;;;;;5080133;28;20389;-60
2022/04/02 06:45:48;;;;;;;4.80;2.25;;;2.00;99.90;;;;;;5071242;28;20092;-61
2022/04/02 06:48:13;;;;;;;3.97;1.90;;;2.00;99.90;;;;;;5072970;28;20085;-60
2022/04/02 06:50:40;;;;;;;4.57;1.67;;;2.10;99.90;;;;;;5091697;28;20044;-60
2022/04/02 06:53:06;;;;;;;3.53;1.98;;;2.10;99.90;;;;;;5074907;28;20036;-60
2022/04/02 06:55:32;;;;;;;4.60;1.63;;;2.10;99.90;;;;;;5078855;28;20040;-60
2022/04/02 06:57:59;;;;;;;3.35;2.25;;;2.10;99.90;;;;;;5089846;28;20046;-60
2022/04/02 07:00:26;;;;;;;4.00;2.33;;;2.10;99.90;;;;;;5087660;28;20123;-60
2022/04/02 07:02:52;;;;;;;8.82;6.20;;;2.10;99.90;;;;;;5088148;28;20052;-60
2022/04/02 07:05:18;;;;;;;8.13;5.80;;;2.10;99.90;;;;;;5085199;28;20081;-60
2022/04/02 07:07:49;;;;;;;5.38;3.80;;;2.20;99.90;;;;;;5089917;28;20493;-60
2022/04/02 07:10:15;;;;;;;5.68;4.25;;;2.20;99.90;;;;;;5088004;28;20059;-61
2022/04/02 07:12:41;;;;;;;4.00;3.00;;;2.20;99.90;;;;;;5080289;28;20425;-60
2022/04/02 07:15:07;;;;;;;3.83;2.20;;;2.20;99.90;;;;;;5071638;28;20085;-60
2022/04/02 07:17:34;;;;;;;3.97;1.83;;;2.30;99.90;;;;;;5078261;28;20043;-60
2022/04/02 07:20:01;;;;;;;5.20;2.33;;;2.30;99.90;;;;;;5079797;28;20036;-60
2022/04/02 07:22:27;;;;;;;4.00;2.30;;;2.30;99.90;;;;;;5081687;28;20036;-61
2022/04/02 07:24:54;;;;;;;2.65;1.58;;;2.40;99.90;;;;;;5083853;28;20055;-60
2022/04/02 07:27:26;;;;;;;4.75;1.95;;;2.40;99.90;;;;;;5082984;28;20051;-60
2022/04/02 07:29:53;;;;;;;5.47;2.17;;;2.50;99.90;;;;;;5087479;28;20105;-60
2022/04/02 07:32:19;;;;;;;3.55;1.92;;;2.50;99.90;;;;;;5084733;28;20044;-60
2022/04/02 07:34:45;;;;;;;3.90;1.88;;;2.60;99.90;;;;;;5081028;28;20564;-60
2022/04/02 07:37:23;;;;;;;4.78;1.90;;;2.60;99.90;;;;;;5079545;28;20101;-60
2022/04/02 07:40:24;;;;;;;3.40;1.77;;;2.70;99.90;;;;;;5080581;28;20048;-61
2022/04/02 07:43:15;;;;;;;2.75;1.90;;;2.80;99.90;;;;;;5073947;28;20477;-60
2022/04/02 07:45:45;;;;;;;3.58;1.88;;;2.80;99.90;;;;;;5076095;28;20036;-61
2022/04/02 07:48:11;;;;;;;3.65;1.88;;;2.90;99.90;;;;;;5072508;28;20044;-61
2022/04/02 07:50:45;;;;;;;3.17;1.60;;;3.00;99.90;;;;;;5073431;28;20040;-61
2022/04/02 07:53:21;;;;;;;3.35;1.60;;;3.00;99.90;;;;;;5071980;28;20123;-60
2022/04/02 07:55:56;;;;;;;3.38;1.45;;;3.00;99.90;;;;;;5083928;28;20549;-61
2022/04/02 07:58:34;;;;;;;3.78;1.58;;;3.10;99.90;;;;;;5081918;28;20055;-60
2022/04/02 08:01:03;;;;;;;2.22;1.48;;;3.10;99.90;;;;;;5084872;28;20087;-60
2022/04/02 08:03:30;;;;;;;3.67;1.75;;;3.20;99.90;;;;;;5081214;28;20056;-60
2022/04/02 08:05:56;;;;;;;3.92;1.50;;;3.20;99.90;;;;;;5083572;28;20048;-60
2022/04/02 08:08:26;;;;;;;2.85;1.50;;;3.30;99.90;;;;;;5079049;28;20501;-60
2022/04/02 08:10:53;;;;;;;3.47;1.40;;;3.30;99.90;;;;;;5063548;28;20055;-61
2022/04/02 08:13:20;;;;;;;2.53;1.55;;;3.40;99.80;;;;;;5078214;28;20510;-60
2022/04/02 08:15:47;;;;;;;2.42;1.15;;;3.40;99.60;;;;;;5081412;28;20142;-60
2022/04/02 08:18:17;;;;;;;4.53;1.45;;;3.50;99.50;;;;;;5088122;28;20047;-60
2022/04/02 08:20:43;;;;;;;2.88;1.48;;;3.50;98.90;;;;;;5081994;28;20086;-61
2022/04/02 08:23:09;;;;;;;2.33;1.40;;;3.50;98.30;;;;;;5083361;28;20055;-60
2022/04/02 08:25:42;;;;;;;3.28;1.70;;;3.60;97.90;;;;;;5094369;28;20048;-61
2022/04/02 08:28:13;;;;;;;5.65;2.45;;;3.60;98.40;;;;;;5083506;28;20051;-60
2022/04/02 08:30:48;;;;;;;2.33;1.60;;;3.50;99.30;;;;;;5085226;28;20044;-60
2022/04/02 08:33:36;;;;;;;3.72;1.85;;;3.50;99.90;;;;;;5072550;28;20032;-60
2022/04/02 08:36:21;;;;;;;4.10;1.85;;;3.50;99.90;;;;;;5072552;28;20040;-60
2022/04/02 08:38:58;;;;;;;3.83;1.90;;;3.60;99.90;;;;;;5088109;28;20105;-60
2022/04/02 08:41:55;;;;;;;3.50;2.22;;;3.70;99.90;;;;;;5081837;28;20028;-60
2022/04/02 08:44:26;;;;;;;4.57;1.50;;;3.70;99.90;;;;;;5083020;28;20044;-60
2022/04/02 08:47:13;;;;;;;2.63;1.73;;;3.70;99.90;;;;;;5081752;28;20071;-61
2022/04/02 08:50:10;;;;;;;4.38;1.65;;;3.80;99.90;;;;;;5081367;28;20074;-60
2022/04/02 08:52:38;;;;;;;3.72;2.00;;;3.80;99.90;;;;;;5083684;28;20062;-61
2022/04/02 08:55:10;;;;;;;4.03;2.00;;;3.90;99.90;;;;;;5074277;28;20047;-60
2022/04/02 08:57:42;;;;;;;3.08;1.80;;;4.00;99.90;;;;;;5085011;28;20043;-60
2022/04/02 09:00:10;;;;;;;3.25;1.70;;;4.00;99.90;;;;;;5081718;28;20041;-60
2022/04/02 09:03:18;;;;;;;4.80;1.83;;;4.10;99.90;;;;;;5087274;28;20043;-61
2022/04/02 09:06:11;;;;;;;5.30;2.58;;;4.20;99.90;;;;;;5075057;28;20126;-61
2022/04/02 09:09:06;;;;;;;5.97;2.70;;;4.20;99.90;;;;;;5086820;28;20062;-61
2022/04/02 09:11:56;;;;;;;7.30;2.72;;;4.20;99.90;;;;;;5091973;28;20036;-60
2022/04/02 09:14:44;;;;;;;6.60;2.85;;;4.30;99.90;;;;;;5083108;28;20040;-61
2022/04/02 09:17:29;;;;;;;7.80;3.10;;;4.40;99.90;;;;;;5079590;28;20449;-60
2022/04/02 09:20:13;;;;;;;7.22;1.85;;;4.40;99.90;;;;;;5089610;28;20070;-60
2022/04/02 09:23:15;;;;;;;3.65;1.55;;;4.50;99.90;;;;;;5083964;28;20473;-60
2022/04/02 09:25:56;;;;;;;3.55;2.20;;;4.60;99.70;;;;;;5080376;28;20131;-60
2022/04/02 09:28:24;;;;;;;3.60;1.15;;;4.70;99.50;;;;;;5089205;28;20207;-60
2022/04/02 09:31:05;;;;;;;5.50;1.55;;;4.70;99.60;;;;;;5091388;28;20670;-60
2022/04/02 09:33:53;;;;;;;8.48;1.65;;;4.80;98.00;;;;;;5085714;28;20040;-60
2022/04/02 09:36:40;;;;;;;1.27;1.13;;;4.70;97.00;;;;;;5084442;28;20051;-60
2022/04/02 09:39:21;;;;;;;5.65;1.83;;;;;;;;;;5078791;28;20397;-60
2022/04/02 09:42:09;;;;;;;2.83;1.60;;;4.70;97.30;;;;;;5089582;28;20036;-60
2022/04/02 09:44:58;;;;;;;2.50;1.30;;;4.70;95.50;;;;;;5086255;28;20032;-60
2022/04/02 09:47:54;;;;;;;3.08;1.60;;;4.60;95.10;;;;;;5081986;28;20120;-60
2022/04/02 09:50:22;;;;;;;2.58;1.40;;;4.60;95.50;;;;;;5084297;28;20036;-60
2022/04/02 09:52:55;;;;;;;2.75;1.50;;;4.60;95.90;;;;;;5086622;28;20082;-61
2022/04/02 09:55:23;;;;;;;2.95;2.15;;;4.60;95.60;;;;;;5084401;28;20043;-60
2022/04/02 09:58:22;;;;;;;2.85;1.90;;;4.70;95.80;;;;;;5086671;28;20102;-60
2022/04/02 10:00:58;;;;;;;3.05;1.80;;;4.70;94.20;;;;;;5079170;28;20098;-60
2022/04/02 10:03:59;;;;;;;2.45;1.33;;;4.70;94.40;;;;;;5083212;28;20041;-61
2022/04/02 10:06:30;;;;;;;2.10;1.38;;;4.90;94.40;;;;;;5085517;28;20610;-60
2022/04/02 10:08:56;;;;;;;3.67;1.42;;;4.90;94.70;;;;;;5084784;28;20549;-60
2022/04/02 10:11:27;;;;;;;5.68;1.67;;;4.90;94.30;;;;;;5090156;28;20048;-60
2022/04/02 10:13:57;;;;;;;2.40;1.25;;;5.00;94.30;;;;;;5088367;28;20028;-61
2022/04/02 10:16:24;;;;;;;4.18;1.70;;;5.10;94.10;;;;;;5085249;28;20032;-60
2022/04/02 10:18:53;;;;;;;3.63;1.20;;;5.10;93.30;;;;;;5089347;28;20044;-60
2022/04/02 10:21:20;;;;;;;2.50;1.00;;;5.00;92.60;;;;;;5081987;28;20046;-61
2022/04/02 10:23:57;;;;;;;2.97;1.52;;;5.00;92.40;;;;;;5088129;28;20108;-60
2022/04/02 10:26:23;;;;;;;3.15;1.23;;;5.00;92.10;;;;;;5081604;28;20044;-61
2022/04/02 10:28:54;;;;;;;4.03;1.35;;;4.90;92.40;;;;;;5089296;28;20040;-60
2022/04/02 10:31:35;;;;;;;3.28;1.00;;;4.90;92.10;;;;;;5085524;28;20421;-60
2022/04/02 10:34:31;;;;;;;1.98;1.02;;;4.90;91.30;;;;;;5079151;28;20099;-60
2022/04/02 10:37:10;;;;;;;3.25;1.08;;;4.80;91.50;;;;;;5086390;28;20040;-60
2022/04/02 10:39:47;;;;;;;2.47;1.48;;;4.80;91.60;;;;;;5086398;28;20727;-60
2022/04/02 10:42:17;;;;;;;4.20;1.20;;;4.80;91.80;;;;;;5084637;28;20081;-60
2022/04/02 10:45:07;;;;;;;7.30;1.80;;;4.70;91.80;;;;;;5090343;28;20689;-60
2022/04/02 10:47:41;;;;;;;5.45;1.50;;;4.70;91.50;;;;;;5069956;28;20745;-60
2022/04/02 10:50:08;;;;;;;4.22;1.40;;;4.80;92.10;;;;;;5083118;28;20543;-60
2022/04/02 10:52:35;;;;;;;2.17;1.00;;;4.90;92.30;;;;;;5088525;28;20574;-60
2022/04/02 10:55:02;;;;;;;3.75;1.77;;;5.00;92.30;;;;;;5082071;28;20044;-60
2022/04/02 10:57:29;;;;;;;2.15;1.05;;;5.10;92.50;;;;;;5091611;28;20122;-60
2022/04/02 11:00:09;;;;;;;2.05;1.00;;;5.20;92.40;;;;;;5084585;28;20048;-60
2022/04/02 11:02:44;;;;;;;4.20;1.23;;;5.30;90.80;;;;;;5084343;28;20032;-60
2022/04/02 11:05:16;;;;;;;3.15;1.10;;;5.30;90.40;;;;;;5082979;28;20040;-60
2022/04/02 11:07:49;;;;;;;3.42;1.08;;;5.30;90.60;;;;;;5081117;28;20040;-60
2022/04/02 11:10:20;;;;;;;4.07;1.30;;;5.20;90.50;;;;;;5086832;28;20058;-60
2022/04/02 11:12:48;;;;;;;5.50;1.45;;;5.30;90.30;;;;;;5089394;28;20101;-60
2022/04/02 11:15:23;;;;;;;3.20;1.40;;;5.30;90.30;;;;;;5081942;28;20549;-60
2022/04/02 11:17:49;;;;;;;3.67;1.50;;;5.30;90.70;;;;;;5074554;28;20109;-60
2022/04/02 11:20:17;;;;;;;2.55;1.30;;;5.30;91.20;;;;;;5071292;28;20040;-61
2022/04/02 11:22:51;;;;;;;3.53;1.13;;;5.40;91.40;;;;;;5084823;28;20297;-61
2022/04/02 11:25:25;;;;;;;2.72;1.60;;;5.50;91.50;;;;;;5083791;28;20063;-61
2022/04/02 11:28:01;;;;;;;4.47;1.55;;;5.40;91.40;;;;;;5067381;28;20485;-61
2022/04/02 11:30:29;;;;;;;2.58;1.48;;;5.50;91.60;;;;;;5084841;28;20493;-60
2022/04/02 11:33:02;;;;;;;3.38;1.27;;;5.60;91.40;;;;;;5070306;28;20103;-60
2022/04/02 11:35:30;;;;;;;3.85;1.20;;;5.70;91.40;;;;;;5070657;28;20246;-61
2022/04/02 11:38:17;;;;;;;3.53;1.10;;;5.80;91.70;;;;;;5071590;28;20036;-60
2022/04/02 11:40:51;;;;;;;7.00;1.58;;;5.90;91.30;;;;;;5072290;28;20032;-61
2022/04/02 11:43:18;;;;;;;3.30;1.30;;;6.00;91.00;;;;;;5072336;28;20028;-60
2022/04/02 11:45:46;;;;;;;4.43;1.25;;;6.10;90.90;;;;;;5087503;28;20112;-60
2022/04/02 11:48:16;;;;;;;2.17;1.20;;;6.20;90.70;;;;;;5084397;28;20028;-60
2022/04/02 11:50:43;;;;;;;2.08;1.00;;;6.30;90.60;;;;;;5078655;28;20044;-60
2022/04/02 11:53:10;;;;;;;2.80;1.25;;;;;;;;;;5088714;28;20101;-61
2022/04/02 11:55:37;;;;;;;2.40;1.13;;;;;;;;;;5085926;28;20044;-61
2022/04/02 11:58:07;;;;;;;3.40;1.13;;;;;;;;;;5082870;28;20489;-60
2022/04/02 12:00:35;;;;;;;2.00;1.02;;;;;;;;;;5081943;28;20097;-60
2022/04/02 12:03:01;;;;;;;3.72;1.13;;;;;;;;;;5085916;28;20044;-60
2022/04/02 12:05:38;;;;;;;4.82;1.42;;;;;;;;;;5085688;28;20047;-60
2022/04/02 12:08:04;;;;;;;4.82;1.27;;;6.30;88.80;;;;;;5083890;28;20393;-60
2022/04/02 12:10:32;;;;;;;3.80;1.20;;;;;;;;;;5087375;28;20039;-61
2022/04/02 12:12:59;;;;;;;3.75;1.17;;;6.00;81.90;;;;;;5070438;28;20047;-61
2022/04/02 12:15:26;;;;;;;2.05;0.75;;;;;;;;;;5083331;28;20550;-60
2022/04/02 12:17:53;;;;;;;3.15;1.10;;;;;;;;;;5083049;28;20044;-61
2022/04/02 12:20:33;;;;;;;5.68;1.33;;;;;;;;;;5082112;28;20032;-61
2022/04/02 12:23:15;;;;;;;7.13;1.40;;;6.10;81.50;;;;;;5076456;28;20090;-61
2022/04/02 12:25:58;;;;;;;1.02;0.82;;;6.40;79.20;;;;;;5084281;28;20048;-60
2022/04/02 12:28:25;;;;;;;2.15;0.85;;;6.40;75.70;;;;;;5088764;28;20043;-60
2022/04/02 12:30:52;;;;;;;3.83;1.88;;;6.40;76.60;;;;;;5081632;28;20040;-61
2022/04/02 12:33:21;;;;;;;4.55;1.55;;;6.30;76.80;;;;;;5080169;28;20511;-60
2022/04/02 12:35:56;;;;;;;4.35;3.17;;;6.40;77.00;;;;;;5078512;28;20052;-61
2022/04/02 12:38:30;;;;;;;3.28;1.63;;;6.50;77.40;;;;;;5086626;28;20040;-60
2022/04/02 12:40:58;;;;;;;2.50;1.23;;;;;;;;;;5080375;28;20040;-61
2022/04/02 12:43:27;;;;;;;1.65;0.93;;;;;;;;;;5082240;28;20032;-60
2022/04/02 12:45:53;;;;;;;2.42;0.90;;;;;;;;;;5081000;28;20074;-60
2022/04/02 12:48:20;;;;;;;2.60;1.38;;;;;;;;;;5082851;28;20516;-60
2022/04/02 12:51:00;;;;;;;4.10;0.98;;;;;;;;;;5086253;28;20123;-61
2022/04/02 12:53:31;;;;;;;2.55;1.15;;;;;;;;;;5091300;28;20649;-61
2022/04/02 12:55:58;;;;;;;3.90;0.80;;;;;;;;;;5090762;28;20044;-60
2022/04/02 12:58:34;;;;;;;2.08;1.02;;;;;;;;;;5085756;28;20044;-60
2022/04/02 13:01:08;;;;;;;3.42;1.25;;;;;;;;;;5093786;28;20060;-60
2022/04/02 13:03:42;;;;;;;1.92;0.98;;;;;;;;;;5085495;28;20482;-60
2022/04/02 13:06:15;;;;;;;4.35;2.05;;;;;;;;;;5090684;28;20040;-60
2022/04/02 13:08:41;;;;;;;;;;;;;;;;;;5086444;28;20044;-60
2022/04/02 13:11:08;;;;;;;2.75;1.63;;;;;;;;;;5081932;28;20400;-61
2022/04/02 13:13:39;;;;;;;3.33;1.02;;;;;;;;;;5071990;28;20040;-61
2022/04/02 13:16:05;;;;;;;2.25;1.20;;;;;;;;;;5073319;28;20037;-61
2022/04/02 13:21:22;;;;;;;1.73;0.80;;;;;;;;;;5076215;28;20118;-60
2022/04/02 13:24:09;;;;;;;1.83;1.00;;;;;;;;;;5074699;28;20068;-61
2022/04/02 13:26:38;;;;;;;2.95;1.33;;;;;;;;;;5072679;28;20059;-60